Time;durP1;ratioP1;P1;durP2;ratioP2;P2;SDS_P1;SDS_P2;PMS_P1;PMS_P2;Temp;Humidity;BMP_temperature;BMP_pressure;BME280_temperature;BME280_humidity;BME280_pressure;Samples;Min_cycle;Max_cycle;Signal;HPM_P1;HPM_P2
2023/06/25 00:02:19;;;;;;;;;;;;;;;;;;;;;
2023/06/25 00:08:05;;;;;;;15.20;12.70;;;;;;;13.52;85.26;99223.80;222272;1300;22521;-78
2023/06/25 00:13:29;;;;;;;14.80;13.20;;;;;;;13.47;85.18;99223.53;222291;1302;24995;-77
2023/06/25 00:18:33;;;;;;;16.30;13.30;;;;;;;13.42;85.34;99218.80;222256;1301;22576;-77
2023/06/25 00:23:39;;;;;;;15.60;14.00;;;;;;;13.38;85.41;99216.20;222335;1302;22570;-77
2023/06/25 00:28:41;;;;;;;16.10;13.30;;;;;;;13.34;85.44;99215.79;222213;1301;25313;-77
2023/06/25 00:33:53;;;;;;;15.40;12.60;;;;;;;13.29;85.56;99212.89;222228;1302;22599;-77
2023/06/25 00:38:56;;;;;;;16.10;12.40;;;;;;;13.23;85.69;99208.11;222132;1298;22552;-77
2023/06/25 00:44:06;;;;;;;15.00;13.30;;;;;;;13.17;85.75;99205.77;222176;1302;22556;-77
2023/06/25 00:49:26;;;;;;;15.80;13.50;;;;;;;13.12;85.87;99202.69;222175;1302;22609;-77
2023/06/25 00:54:38;;;;;;;18.80;13.80;;;;;;;13.07;86.14;99196.98;222197;1301;22583;-77
2023/06/25 00:59:52;;;;;;;14.50;13.00;;;;;;;13.04;86.23;99195.08;222263;1298;22562;-77
2023/06/25 01:05:18;;;;;;;15.70;13.00;;;;;;;13.02;86.51;99197.33;222269;1301;22588;-78
2023/06/25 01:10:20;;;;;;;15.80;13.20;;;;;;;12.97;86.39;99195.00;222288;1298;22566;-77
2023/06/25 01:15:26;;;;;;;16.00;14.30;;;;;;;12.91;86.35;99187.53;222059;1301;22671;-78
2023/06/25 01:20:29;;;;;;;18.60;14.30;;;;;;;12.87;86.69;99177.55;222108;1298;25433;-79
2023/06/25 01:25:36;;;;;;;19.60;14.30;;;;;;;12.83;86.64;99173.14;222249;1302;22657;-78
2023/06/25 01:30:39;;;;;;;16.80;14.70;;;;;;;12.80;86.78;99175.52;222226;1303;22566;-78
2023/06/25 01:35:42;;;;;;;16.20;14.50;;;;;;;12.79;86.91;99173.44;222274;1301;24249;-78
2023/06/25 01:40:49;;;;;;;17.00;14.10;;;;;;;12.76;86.93;99165.60;222179;1302;22612;-78
2023/06/25 01:46:02;;;;;;;17.40;14.80;;;;;;;12.76;87.16;99162.84;222245;1302;22595;-78
2023/06/25 01:51:10;;;;;;;16.00;13.90;;;;;;;12.74;87.17;99158.81;222135;1301;22594;-78
2023/06/25 01:56:15;;;;;;;17.80;14.80;;;;;;;12.72;87.24;99155.01;222167;1301;22557;-78
2023/06/25 02:01:21;;;;;;;14.00;12.20;;;;;;;12.70;87.17;99157.06;222241;1298;22554;-77
2023/06/25 02:06:27;;;;;;;16.80;14.40;;;;;;;12.63;86.98;99154.67;222288;1298;22562;-78
2023/06/25 02:11:30;;;;;;;13.90;12.50;;;;;;;12.57;86.95;99160.77;222248;1301;25597;-77
2023/06/25 02:16:33;;;;;;;17.20;14.30;;;;;;;12.52;87.07;99163.16;221974;1302;22575;-77
2023/06/25 02:21:38;;;;;;;19.50;15.70;;;;;;;12.48;87.03;99161.11;222231;1298;22567;-77
2023/06/25 02:26:42;;;;;;;18.50;15.30;;;;;;;12.43;87.26;99157.86;222127;1302;24397;-77
2023/06/25 02:31:45;;;;;;;19.10;15.90;;;;;;;12.39;87.43;99150.52;222270;1301;22657;-78
2023/06/25 02:36:53;;;;;;;23.40;17.10;;;;;;;12.34;87.45;99149.83;222299;1302;22576;-78
2023/06/25 02:41:55;;;;;;;18.80;16.50;;;;;;;12.30;87.37;99149.54;222296;1302;22573;-77
2023/06/25 02:47:07;;;;;;;18.50;16.50;;;;;;;12.26;87.57;99145.39;222247;1300;22548;-77
2023/06/25 02:52:10;;;;;;;18.80;15.40;;;;;;;12.26;87.67;99152.13;222074;1302;22848;-77
2023/06/25 02:57:12;;;;;;;19.30;15.60;;;;;;;12.29;88.00;99160.06;222085;1301;22558;-78
2023/06/25 03:02:25;;;;;;;17.70;15.80;;;;;;;12.31;87.84;99161.14;222251;1301;22566;-78
2023/06/25 03:07:37;;;;;;;19.60;16.10;;;;;;;12.35;87.92;99159.81;222237;1302;22558;-78
2023/06/25 03:12:42;;;;;;;22.90;16.80;;;;;;;12.37;87.79;99156.58;222281;1302;22640;-78
2023/06/25 03:17:50;;;;;;;18.10;15.90;;;;;;;12.38;87.48;99158.29;222261;1302;24301;-78
2023/06/25 03:22:56;;;;;;;18.80;15.70;;;;;;;12.49;87.54;99160.88;222074;1302;23216;-78
2023/06/25 03:28:00;;;;;;;19.30;15.30;;;;;;;12.79;87.28;99163.86;222278;1301;22562;-78
2023/06/25 03:33:04;;;;;;;17.20;14.70;;;;;;;13.09;86.90;99168.90;222075;1301;22565;-78
2023/06/25 03:38:10;;;;;;;15.60;14.00;;;;;;;13.41;86.41;99173.27;222055;1301;22553;-78
2023/06/25 03:43:14;;;;;;;15.60;13.80;;;;;;;13.73;85.83;99179.54;222053;1302;25300;-78
2023/06/25 03:48:17;;;;;;;14.20;12.20;;;;;;;14.03;85.37;99176.90;221960;1302;22575;-78
2023/06/25 03:53:21;;;;;;;15.10;13.40;;;;;;;14.35;84.94;99175.23;222066;1298;22556;-78
2023/06/25 03:58:33;;;;;;;14.20;12.30;;;;;;;14.61;84.34;99174.77;222204;1301;22577;-76
2023/06/25 04:03:37;;;;;;;17.10;13.80;;;;;;;14.81;84.11;99168.80;222070;1302;22572;-77
2023/06/25 04:08:42;;;;;;;22.20;19.90;;;;;;;14.98;83.87;99170.42;222077;1301;22593;-79
2023/06/25 04:13:45;;;;;;;38.00;34.10;;;;;;;15.09;84.10;99161.33;222170;1301;22576;-79
2023/06/25 04:18:51;;;;;;;26.00;23.40;;;;;;;15.18;83.79;99155.27;222253;1302;22562;-78
2023/06/25 04:23:56;;;;;;;21.80;19.50;;;;;;;15.21;83.48;99157.11;222347;1299;22549;-78
2023/06/25 04:28:59;;;;;;;20.70;17.80;;;;;;;15.23;83.73;99161.75;222318;1299;22576;-78
2023/06/25 04:34:05;;;;;;;17.30;15.30;;;;;;;15.27;83.49;99168.25;222200;1301;22595;-79
2023/06/25 04:39:08;;;;;;;15.90;14.20;;;;;;;15.37;83.29;99164.79;222169;1301;22625;-78
2023/06/25 04:44:19;;;;;;;16.90;13.40;;;;;;;15.45;83.01;99158.20;222340;1301;22608;-78
2023/06/25 04:49:27;;;;;;;17.00;13.30;;;;;;;15.46;82.94;99155.48;222102;1301;22569;-78
2023/06/25 04:54:30;;;;;;;18.80;12.30;;;;;;;15.49;82.75;99150.60;221930;1302;22577;-78
2023/06/25 04:59:33;;;;;;;14.40;11.80;;;;;;;15.57;82.79;99150.67;222326;1298;25385;-79
2023/06/25 05:04:36;;;;;;;21.10;15.00;;;;;;;15.59;82.70;99151.67;222239;1301;22569;-79
2023/06/25 05:09:48;;;;;;;20.30;14.50;;;;;;;15.71;82.69;99149.48;222223;1298;22602;-77
2023/06/25 05:14:55;;;;;;;19.70;14.10;;;;;;;15.88;82.58;99146.25;222268;1291;22923;-78
2023/06/25 05:19:57;;;;;;;20.00;15.00;;;;;;;15.99;82.41;99146.56;222253;1301;22576;-79
2023/06/25 05:25:00;;;;;;;18.50;14.60;;;;;;;16.08;82.39;99148.71;222137;1302;22583;-78
2023/06/25 05:30:02;;;;;;;18.70;14.80;;;;;;;16.24;82.26;99151.13;222207;1303;22572;-78
2023/06/25 05:35:15;;;;;;;16.30;14.60;;;;;;;16.31;82.05;99152.38;222218;1303;27388;-78
2023/06/25 05:40:18;;;;;;;20.60;16.00;;;;;;;16.48;82.72;99155.46;222253;1302;22632;-78
2023/06/25 05:45:21;;;;;;;19.20;15.40;;;;;;;16.76;82.33;99159.21;222169;1301;22671;-78
2023/06/25 05:50:24;;;;;;;19.00;16.20;;;;;;;16.99;82.04;99166.15;222223;1303;22576;-78
2023/06/25 05:55:38;;;;;;;19.80;17.20;;;;;;;17.25;81.64;99162.52;222275;1298;22611;-78
2023/06/25 06:00:41;;;;;;;21.50;17.30;;;;;;;17.38;81.53;99155.73;221979;1303;22565;-78
2023/06/25 06:05:46;;;;;;;20.60;17.00;;;;;;;17.41;81.23;99158.97;222165;1302;23080;-78
2023/06/25 06:10:51;;;;;;;20.30;18.00;;;;;;;17.43;81.57;99163.61;222173;1302;22994;-78
2023/06/25 06:15:56;;;;;;;22.40;18.40;;;;;;;17.60;82.47;99162.39;221605;1301;542755;-79
2023/06/25 06:21:01;;;;;;;21.80;17.60;;;;;;;17.73;81.79;99162.09;222138;1302;22609;-78
2023/06/25 06:26:03;;;;;;;19.40;17.30;;;;;;;17.82;81.88;99156.70;222252;1301;23807;-78
2023/06/25 06:31:06;;;;;;;18.60;15.80;;;;;;;17.95;81.36;99154.10;222245;1302;22574;-79
2023/06/25 06:36:08;;;;;;;19.60;17.00;;;;;;;18.04;81.20;99152.68;222285;1303;22637;-78
2023/06/25 06:41:12;;;;;;;18.20;15.80;;;;;;;18.12;80.83;99155.40;222152;1302;22576;-78
2023/06/25 06:46:18;;;;;;;17.10;15.10;;;;;;;18.24;80.74;99154.23;222034;1303;22611;-78
2023/06/25 06:51:20;;;;;;;17.30;15.50;;;;;;;18.36;80.38;99152.66;221997;1302;22565;-78
2023/06/25 06:56:23;;;;;;;15.70;13.90;;;;;;;18.48;80.29;99151.73;222031;1303;24275;-78
2023/06/25 07:01:28;;;;;;;11.70;10.30;;;;;;;18.65;80.07;99154.00;222336;1302;22662;-78
2023/06/25 07:06:31;;;;;;;15.80;13.50;;;;;;;18.80;79.61;99155.81;222233;1301;22602;-78
2023/06/25 07:11:33;;;;;;;15.20;13.10;;;;;;;18.94;79.58;99156.19;222206;1302;22572;-78
2023/06/25 07:16:35;;;;;;;14.80;13.10;;;;;;;19.10;79.30;99151.05;222336;1302;22613;-79
2023/06/25 07:21:39;;;;;;;16.70;14.70;;;;;;;19.20;78.93;99150.36;222077;1302;22560;-78
2023/06/25 07:26:41;;;;;;;14.40;12.90;;;;;;;19.35;79.02;99139.69;222229;1302;22607;-78
2023/06/25 07:31:44;;;;;;;14.70;13.20;;;;;;;19.59;79.26;99132.92;222208;1302;22604;-77
2023/06/25 07:36:57;;;;;;;14.20;12.70;;;;;;;19.85;78.93;99131.98;222287;1302;22676;-78
2023/06/25 07:42:01;;;;;;;14.40;12.90;;;;;;;20.08;78.23;99128.66;222330;1299;22552;-78
2023/06/25 07:47:04;;;;;;;15.10;11.70;;;;;;;20.26;77.61;99131.34;222337;1301;22609;-77
2023/06/25 07:52:07;;;;;;;13.60;11.50;;;;;;;20.41;76.88;99126.27;222055;1303;22594;-78
2023/06/25 07:57:10;;;;;;;12.60;10.70;;;;;;;20.58;76.31;99123.59;222314;1295;22576;-78
2023/06/25 08:02:16;;;;;;;11.90;10.70;;;;;;;20.76;76.04;99123.70;222311;1302;22589;-78
2023/06/25 08:07:19;;;;;;;12.40;11.10;;;;;;;21.00;75.65;99120.26;222345;1303;23024;-78
2023/06/25 08:12:30;;;;;;;12.40;9.90;;;;;;;21.15;74.92;99117.98;222394;1295;22558;-78
2023/06/25 08:17:33;;;;;;;11.80;10.60;;;;;;;21.35;74.76;99116.50;222272;1302;22607;-79
2023/06/25 08:22:36;;;;;;;10.70;9.20;;;;;;;21.55;74.59;99111.96;222230;1301;22659;-78
2023/06/25 08:27:43;;;;;;;11.40;8.70;;;;;;;21.78;74.07;99111.85;222301;1299;22938;-78
2023/06/25 08:32:54;;;;;;;9.10;8.20;;;;;;;21.98;72.68;99114.45;222080;1303;23297;-78
2023/06/25 08:37:57;;;;;;;8.70;7.50;;;;;;;22.17;71.62;99109.11;222206;1303;25497;-78
2023/06/25 08:43:00;;;;;;;8.10;7.20;;;;;;;22.38;71.13;99101.91;222186;1302;22564;-78
2023/06/25 08:48:04;;;;;;;8.00;7.20;;;;;;;22.60;69.64;99108.77;222293;1301;22555;-79
2023/06/25 08:53:06;;;;;;;7.90;7.10;;;;;;;22.78;68.69;99109.89;222265;1302;22593;-78
2023/06/25 08:58:12;;;;;;;8.90;8.00;;;;;;;22.94;67.84;99105.05;221979;1301;22577;-78
2023/06/25 09:03:15;;;;;;;8.10;7.30;;;;;;;23.12;67.09;99101.70;222128;1303;22582;-79
2023/06/25 09:08:18;;;;;;;7.10;6.40;;;;;;;23.31;65.99;99096.02;222133;1299;22573;-77
2023/06/25 09:13:24;;;;;;;10.30;6.40;;;;;;;23.51;65.43;99095.48;222194;1301;24251;-78
2023/06/25 09:18:26;;;;;;;8.40;7.60;;;;;;;23.79;65.07;99092.70;222140;1302;22739;-79
2023/06/25 09:23:37;;;;;;;8.50;7.70;;;;;;;24.14;64.73;99095.73;222029;1301;22619;-78
2023/06/25 09:28:52;;;;;;;8.10;7.40;;;;;;;24.30;62.69;99097.41;222247;1302;22621;-78
2023/06/25 09:33:59;;;;;;;7.90;7.10;;;;;;;24.34;62.21;99086.59;222175;1299;22653;-79
2023/06/25 09:39:03;;;;;;;6.80;6.20;;;;;;;24.36;61.13;99084.33;222000;1303;22569;-78
2023/06/25 09:44:06;;;;;;;7.70;6.90;;;;;;;24.35;60.96;99082.11;222175;1301;22745;-77
2023/06/25 09:49:08;;;;;;;6.80;6.20;;;;;;;24.25;60.07;99084.53;222166;1298;22574;-78
2023/06/25 09:54:15;;;;;;;6.80;6.20;;;;;;;24.21;59.55;99084.14;222245;1299;22574;-78
2023/06/25 09:59:21;;;;;;;6.60;6.10;;;;;;;24.28;59.40;99077.25;222227;1301;22587;-79
2023/06/25 10:04:27;;;;;;;7.40;6.40;;;;;;;24.40;58.57;99074.33;222181;1302;22635;-78
2023/06/25 10:09:37;;;;;;;6.90;6.30;;;;;;;24.61;58.47;99070.10;222230;1298;22749;-79
2023/06/25 10:14:41;;;;;;;6.90;6.40;;;;;;;24.85;58.44;99060.93;222167;1295;25396;-78
2023/06/25 10:19:57;;;;;;;7.50;6.50;;;;;;;24.82;57.69;99057.95;222070;1302;22585;-78
2023/06/25 10:24:59;;;;;;;7.50;6.20;;;;;;;24.78;56.71;99055.41;222306;1291;22578;-78
2023/06/25 10:30:13;;;;;;;7.40;6.60;;;;;;;24.85;56.47;99055.56;222356;1299;22622;-78
2023/06/25 10:35:18;;;;;;;6.80;6.20;;;;;;;24.99;55.72;99045.06;222210;1302;22576;-78
2023/06/25 10:40:28;;;;;;;7.30;6.40;;;;;;;25.05;55.28;99041.77;222185;1301;22594;-78
2023/06/25 10:45:34;;;;;;;6.60;6.00;;;;;;;25.08;54.87;99043.19;222212;1302;23280;-78
2023/06/25 10:50:37;;;;;;;6.70;5.70;;;;;;;25.12;54.11;99041.66;222202;1301;25281;-78
2023/06/25 10:55:43;;;;;;;7.40;5.40;;;;;;;25.14;53.57;99044.85;222220;1299;22576;-78
2023/06/25 11:00:56;;;;;;;6.10;5.60;;;;;;;25.18;53.09;99040.58;222238;1302;22592;-78
2023/06/25 11:06:02;;;;;;;6.20;5.60;;;;;;;25.24;52.62;99034.41;222182;1301;22561;-78
2023/06/25 11:11:06;;;;;;;6.10;5.20;;;;;;;25.31;52.11;99024.71;222295;1298;22565;-79
2023/06/25 11:16:12;;;;;;;6.00;5.50;;;;;;;25.29;51.79;99024.66;222210;1302;22565;-79
2023/06/25 11:21:17;;;;;;;6.30;5.70;;;;;;;25.33;51.86;99019.23;221980;1302;22669;-80
2023/06/25 11:26:19;;;;;;;6.20;5.70;;;;;;;25.43;51.73;99014.09;222148;1298;22565;-79
2023/06/25 11:31:22;;;;;;;5.40;4.90;;;;;;;25.50;51.45;99009.41;222263;1301;22556;-78
2023/06/25 11:36:28;;;;;;;5.70;5.20;;;;;;;25.53;51.06;99014.37;222204;1302;22564;-79
2023/06/25 11:41:30;;;;;;;5.30;4.80;;;;;;;25.55;50.93;99008.88;222248;1300;22565;-79
2023/06/25 11:46:34;;;;;;;5.00;4.60;;;;;;;25.54;50.07;99008.62;222343;1295;22577;-79
2023/06/25 11:51:40;;;;;;;5.40;4.60;;;;;;;25.48;49.84;99002.71;222069;1301;22595;-79
2023/06/25 11:56:41;;;;;;;4.70;4.30;;;;;;;25.49;49.70;98998.80;222219;1301;22591;-79
2023/06/25 12:01:44;;;;;;;4.70;4.30;;;;;;;25.53;49.96;98993.74;222181;1302;22566;-77
2023/06/25 12:06:49;;;;;;;4.70;4.30;;;;;;;25.63;49.84;98990.89;222221;1302;25377;-77
2023/06/25 12:11:54;;;;;;;4.80;4.40;;;;;;;25.67;49.84;98988.00;222217;1301;22624;-78
2023/06/25 12:16:56;;;;;;;4.40;4.00;;;;;;;25.70;49.57;98981.15;222184;1285;22571;-77
2023/06/25 12:22:00;;;;;;;5.10;4.30;;;;;;;25.80;49.08;98974.81;222190;1303;22552;-78
2023/06/25 12:27:02;;;;;;;4.40;4.00;;;;;;;25.91;49.27;98969.35;222286;1298;22577;-78
2023/06/25 12:32:10;;;;;;;4.20;3.80;;;;;;;26.04;49.25;98968.77;222235;1301;22556;-78
2023/06/25 12:37:12;;;;;;;4.90;3.90;;;;;;;25.92;49.31;98963.45;222212;1302;22572;-78
2023/06/25 12:42:15;;;;;;;4.10;3.80;;;;;;;26.07;49.36;98961.09;222202;1298;22586;-78
2023/06/25 12:47:24;;;;;;;4.00;3.70;;;;;;;26.26;49.07;98950.25;222299;1301;22580;-78
2023/06/25 12:52:31;;;;;;;3.90;3.60;;;;;;;26.46;48.56;98944.70;222278;1295;24282;-78
2023/06/25 12:57:37;;;;;;;3.70;3.40;;;;;;;26.69;48.60;98940.85;222112;1301;22577;-78
2023/06/25 13:02:40;;;;;;;3.80;3.50;;;;;;;26.67;48.27;98941.16;222199;1302;22569;-78
2023/06/25 13:07:46;;;;;;;4.40;4.10;;;;;;;26.35;48.59;98946.80;222091;1302;22592;-77
2023/06/25 13:13:05;;;;;;;;;;;;;;;;;;;;;
2023/06/25 13:18:15;;;;;;;5.50;3.80;;;;;;;25.62;50.30;98946.29;222193;1301;22562;-77
2023/06/25 13:23:20;;;;;;;4.20;3.80;;;;;;;25.35;50.63;98947.64;222045;1295;22571;-79
2023/06/25 13:28:22;;;;;;;5.60;3.60;;;;;;;25.31;51.00;98938.80;221997;1301;22572;-77
2023/06/25 13:33:31;;;;;;;4.00;3.70;;;;;;;25.54;50.24;98936.38;222247;1298;25551;-80
2023/06/25 13:38:40;;;;;;;4.00;3.50;;;;;;;25.83;49.57;98923.39;222237;1298;22564;-78
2023/06/25 13:43:43;;;;;;;5.00;3.60;;;;;;;25.77;49.01;98924.85;222096;1301;24923;-79
2023/06/25 13:48:46;;;;;;;4.00;3.60;;;;;;;25.62;49.89;98923.27;222165;1296;22572;-77
2023/06/25 13:53:50;;;;;;;4.00;3.70;;;;;;;25.52;50.83;98919.49;222200;1302;22569;-78
2023/06/25 13:58:53;;;;;;;3.60;3.30;;;;;;;25.43;50.87;98919.94;222266;1302;22555;-77
2023/06/25 14:04:01;;;;;;;3.80;3.50;;;;;;;25.38;51.31;98915.98;222324;1298;22594;-77
2023/06/25 14:09:06;;;;;;;4.40;3.70;;;;;;;25.31;51.40;98915.00;222236;1298;22572;-77
2023/06/25 14:14:08;;;;;;;3.80;3.50;;;;;;;25.33;51.75;98914.55;222292;1298;22561;-77
2023/06/25 14:19:12;;;;;;;4.30;3.40;;;;;;;25.42;51.55;98907.70;222314;1296;22570;-77
2023/06/25 14:24:15;;;;;;;4.80;3.40;;;;;;;25.53;50.99;98908.61;222190;1302;22566;-77
2023/06/25 14:29:17;;;;;;;3.80;3.50;;;;;;;25.59;51.11;98907.27;222289;1302;23172;-77
2023/06/25 14:34:22;;;;;;;4.30;4.00;;;;;;;25.48;50.93;98911.35;222030;1302;24950;-77
2023/06/25 14:39:26;;;;;;;4.40;4.00;;;;;;;25.20;51.54;98911.11;222204;1298;22619;-77
2023/06/25 14:44:31;;;;;;;4.00;3.70;;;;;;;25.03;52.12;98912.41;222128;1302;23743;-78
2023/06/25 14:49:43;;;;;;;4.10;3.80;;;;;;;24.92;52.75;98908.34;222244;1301;22565;-79
2023/06/25 14:54:46;;;;;;;5.90;5.10;;;;;;;24.91;52.88;98904.66;222317;1298;25053;-78
2023/06/25 14:59:52;;;;;;;4.70;4.20;;;;;;;24.96;52.75;98904.38;222203;1302;22585;-77
2023/06/25 15:04:55;;;;;;;4.60;4.20;;;;;;;24.94;52.47;98900.80;222049;1302;22560;-78
2023/06/25 15:10:02;;;;;;;4.20;3.90;;;;;;;24.86;52.73;98900.90;222272;1301;22598;-76
2023/06/25 15:15:07;;;;;;;4.90;4.50;;;;;;;24.73;52.79;98898.68;222159;1301;24286;-78
2023/06/25 15:20:10;;;;;;;6.60;3.90;;;;;;;24.57;52.94;98896.05;222098;1301;22587;-77
2023/06/25 15:25:15;;;;;;;4.00;3.70;;;;;;;24.43;53.37;98897.13;222237;1301;22536;-77
2023/06/25 15:30:22;;;;;;;3.90;3.60;;;;;;;24.28;53.91;98898.04;222214;1302;22763;-77
2023/06/25 15:35:24;;;;;;;4.40;4.00;;;;;;;24.14;54.15;98894.41;222089;1301;22565;-77
2023/06/25 15:40:28;;;;;;;4.50;4.00;;;;;;;23.99;54.53;98891.96;222150;1300;22567;-77
2023/06/25 15:45:30;;;;;;;4.40;4.00;;;;;;;23.92;54.98;98887.64;222286;1298;22779;-76
2023/06/25 15:50:33;;;;;;;4.10;3.70;;;;;;;23.95;55.15;98885.64;222031;1301;25471;-78
2023/06/25 15:55:37;;;;;;;4.20;3.90;;;;;;;24.07;55.29;98886.27;222048;1302;22676;-78
2023/06/25 16:00:39;;;;;;;4.10;3.70;;;;;;;24.16;55.29;98883.13;222148;1302;22603;-77
2023/06/25 16:05:42;;;;;;;4.70;4.30;;;;;;;24.22;55.34;98880.02;222076;1298;22564;-78
2023/06/25 16:10:44;;;;;;;4.00;3.70;;;;;;;24.28;55.57;98878.80;222311;1298;22698;-78
2023/06/25 16:15:47;;;;;;;5.40;3.90;;;;;;;24.46;54.58;98875.23;222220;1301;22567;-78
2023/06/25 16:20:49;;;;;;;3.80;3.50;;;;;;;24.74;54.05;98876.52;221963;1302;22552;-76
2023/06/25 16:25:52;;;;;;;5.30;3.80;;;;;;;25.01;53.68;98875.58;222223;1298;22552;-77
2023/06/25 16:30:54;;;;;;;4.20;3.50;;;;;;;25.16;53.64;98867.71;222013;1302;22573;-77
2023/06/25 16:35:57;;;;;;;4.70;3.90;;;;;;;25.26;53.40;98861.80;222041;1298;22564;-78
2023/06/25 16:40:59;;;;;;;4.40;4.00;;;;;;;25.43;53.36;98865.11;222188;1301;22548;-77
2023/06/25 16:46:01;;;;;;;4.40;3.90;;;;;;;25.54;52.94;98859.41;222148;1301;22598;-78
2023/06/25 16:51:04;;;;;;;4.60;4.10;;;;;;;25.52;52.34;98860.52;222236;1301;22682;-78
2023/06/25 16:56:06;;;;;;;5.70;4.50;;;;;;;25.39;52.00;98859.42;222220;1301;22684;-78
2023/06/25 17:01:11;;;;;;;4.80;4.40;;;;;;;25.21;52.19;98854.90;222258;1292;22557;-77
2023/06/25 17:06:14;;;;;;;4.40;4.00;;;;;;;25.17;52.68;98859.54;222013;1301;25980;-77
2023/06/25 17:11:16;;;;;;;4.20;3.90;;;;;;;25.41;52.72;98861.90;222015;1298;22572;-78
2023/06/25 17:16:25;;;;;;;4.30;3.90;;;;;;;26.48;52.81;98858.52;222190;1302;22565;-77
2023/06/25 17:21:27;;;;;;;4.40;4.00;;;;;;;27.50;51.18;98857.60;222253;1298;22572;-78
2023/06/25 17:26:29;;;;;;;4.00;3.70;;;;;;;27.99;50.54;98860.35;222111;1301;22569;-77
2023/06/25 17:31:31;;;;;;;3.90;3.60;;;;;;;28.88;50.19;98856.02;222099;1302;22569;-78
2023/06/25 17:36:33;;;;;;;4.10;3.70;;;;;;;29.74;48.91;98856.34;222233;1295;22594;-77
2023/06/25 17:41:36;;;;;;;4.20;3.80;;;;;;;29.37;47.05;98853.39;222150;1302;22583;-77
2023/06/25 17:46:39;;;;;;;4.10;3.80;;;;;;;28.55;46.95;98848.30;222241;1302;22577;-78
2023/06/25 17:51:42;;;;;;;4.30;3.90;;;;;;;27.49;47.56;98850.27;222176;1301;22565;-78
2023/06/25 17:56:45;;;;;;;5.00;4.00;;;;;;;26.63;48.43;98851.30;222004;1298;24589;-77
2023/06/25 18:01:53;;;;;;;4.60;4.20;;;;;;;25.98;48.99;98852.74;221950;1302;22593;-77
2023/06/25 18:06:58;;;;;;;4.60;4.20;;;;;;;25.34;49.60;98853.29;222129;1298;22921;-78
2023/06/25 18:12:01;;;;;;;4.50;4.10;;;;;;;24.81;50.54;98858.38;222151;1301;22568;-78
2023/06/25 18:17:06;;;;;;;6.40;4.70;;;;;;;24.39;51.34;98856.57;222000;1301;180727;-78
2023/06/25 18:22:09;;;;;;;4.50;4.10;;;;;;;24.11;51.97;98853.98;221976;1302;24931;-76
2023/06/25 18:27:11;;;;;;;4.70;3.80;;;;;;;23.83;52.52;98854.26;222202;1302;22568;-76
2023/06/25 18:32:14;;;;;;;4.40;3.80;;;;;;;23.55;53.00;98855.39;222168;1300;22563;-76
2023/06/25 18:37:21;;;;;;;4.50;4.10;;;;;;;23.24;53.41;98861.19;222187;1298;25515;-76
2023/06/25 18:42:26;;;;;;;4.20;3.80;;;;;;;22.88;53.96;98858.38;222200;1302;22589;-76
2023/06/25 18:47:31;;;;;;;4.70;3.70;;;;;;;22.57;54.55;98861.97;222355;1295;22565;-76
2023/06/25 18:52:34;;;;;;;4.60;4.10;;;;;;;22.34;55.21;98859.61;222228;1302;22602;-77
2023/06/25 18:57:36;;;;;;;4.70;4.10;;;;;;;22.09;55.44;98864.00;222206;1302;25316;-76
2023/06/25 19:02:39;;;;;;;4.50;3.70;;;;;;;21.85;55.93;98870.02;222241;1298;22593;-77
2023/06/25 19:07:43;;;;;;;6.00;4.00;;;;;;;21.61;56.41;98870.27;222294;1302;22572;-76
2023/06/25 19:12:47;;;;;;;4.30;3.90;;;;;;;21.38;57.09;98875.84;221833;1302;25177;-77
2023/06/25 19:17:50;;;;;;;4.10;3.80;;;;;;;21.12;57.42;98870.26;222176;1302;22565;-77
2023/06/25 19:22:53;;;;;;;4.30;3.90;;;;;;;20.87;57.75;98878.84;222236;1302;22666;-75
2023/06/25 19:28:16;;;;;;;4.40;4.00;;;;;;;20.60;58.21;98883.64;222190;1300;22601;-78
2023/06/25 19:33:22;;;;;;;3.70;3.40;;;;;;;20.35;58.53;98880.58;222209;1302;22564;-77
2023/06/25 19:38:28;;;;;;;6.60;3.60;;;;;;;20.14;58.99;98879.80;222295;1301;22568;-76
2023/06/25 19:43:30;;;;;;;5.60;4.00;;;;;;;19.91;59.52;98879.10;222271;1302;22580;-77
2023/06/25 19:48:32;;;;;;;5.20;3.70;;;;;;;19.71;59.98;98885.22;222285;1300;25556;-76
2023/06/25 19:53:35;;;;;;;4.50;4.00;;;;;;;19.51;60.45;98888.64;222239;1302;22568;-77
2023/06/25 19:58:40;;;;;;;4.70;4.10;;;;;;;19.34;60.88;98890.59;222022;1301;22598;-76
2023/06/25 20:03:44;;;;;;;4.90;4.20;;;;;;;19.21;61.13;98889.33;222031;1301;22782;-77
2023/06/25 20:08:53;;;;;;;4.90;3.80;;;;;;;19.09;61.33;98888.80;222269;1301;22567;-78
2023/06/25 20:13:56;;;;;;;5.20;4.50;;;;;;;18.97;61.63;98888.00;222280;1302;22590;-76
2023/06/25 20:19:08;;;;;;;4.80;3.90;;;;;;;18.85;61.90;98887.01;222221;1302;22569;-75
2023/06/25 20:24:10;;;;;;;6.10;4.70;;;;;;;18.73;62.20;98891.70;222028;1302;22583;-76
2023/06/25 20:29:13;;;;;;;7.70;4.80;;;;;;;18.61;62.41;98888.73;222196;1300;22549;-76
2023/06/25 20:34:23;;;;;;;5.50;4.30;;;;;;;18.47;62.63;98889.77;221994;1302;22567;-75
2023/06/25 20:39:25;;;;;;;;;;;;;;;18.34;63.22;98890.67;222253;1301;22558;-77
2023/06/25 20:44:33;;;;;;;4.90;4.10;;;;;;;18.23;63.50;98888.98;222164;1301;22565;-76
2023/06/25 20:49:36;;;;;;;7.60;4.60;;;;;;;18.12;64.08;98887.23;222166;1298;22575;-76
2023/06/25 20:54:42;;;;;;;5.10;4.50;;;;;;;18.01;64.54;98887.84;222227;1301;22609;-75
2023/06/25 20:59:51;;;;;;;7.50;6.20;;;;;;;17.88;65.06;98888.27;222050;1301;22612;-77
2023/06/25 21:04:54;;;;;;;6.50;5.20;;;;;;;17.78;65.28;98887.59;222019;1301;23031;-76
2023/06/25 21:10:03;;;;;;;8.50;6.40;;;;;;;17.67;65.84;98885.02;222087;1301;22552;-77
2023/06/25 21:15:11;;;;;;;6.60;5.40;;;;;;;17.55;66.21;98889.94;222139;1285;22569;-77
2023/06/25 21:20:18;;;;;;;5.70;5.10;;;;;;;17.46;66.31;98887.02;222222;1301;22571;-77
2023/06/25 21:25:41;;;;;;;5.80;5.00;;;;;;;17.38;66.68;98885.95;222184;1303;25404;-77
2023/06/25 21:30:44;;;;;;;5.50;4.90;;;;;;;17.31;66.86;98886.14;222280;1302;22556;-77
2023/06/25 21:36:06;;;;;;;5.30;4.80;;;;;;;17.23;67.36;98891.88;222195;1301;22599;-77
2023/06/25 21:41:09;;;;;;;5.80;4.80;;;;;;;17.16;67.57;98891.98;222109;1301;22565;-77
2023/06/25 21:46:11;;;;;;;6.10;5.50;;;;;;;17.09;67.79;98891.91;222020;1301;22584;-76
2023/06/25 21:51:13;;;;;;;6.00;5.10;;;;;;;16.99;67.96;98895.39;222144;1301;22565;-76
2023/06/25 21:56:16;;;;;;;5.80;5.20;;;;;;;16.88;68.33;98897.95;222059;1303;24973;-77
2023/06/25 22:01:18;;;;;;;7.80;5.00;;;;;;;16.79;68.74;98891.90;222044;1302;23966;-77
2023/06/25 22:06:21;;;;;;;7.40;5.40;;;;;;;16.70;69.04;98889.20;221999;1302;22682;-77
2023/06/25 22:11:26;;;;;;;5.60;4.80;;;;;;;16.60;69.36;98890.53;221991;1302;22573;-77
2023/06/25 22:16:30;;;;;;;5.70;4.90;;;;;;;16.51;69.74;98891.89;222305;1301;22573;-76
2023/06/25 22:21:33;;;;;;;6.70;5.40;;;;;;;16.42;70.06;98890.95;222020;1301;22565;-77
2023/06/25 22:26:35;;;;;;;8.50;6.00;;;;;;;16.33;70.57;98897.36;222176;1301;22583;-77
2023/06/25 22:31:39;;;;;;;9.20;6.80;;;;;;;16.24;71.22;98893.02;222034;1301;22552;-76
2023/06/25 22:36:48;;;;;;;9.20;6.50;;;;;;;16.13;71.92;98890.96;222240;1301;22565;-76
2023/06/25 22:42:04;;;;;;;7.40;6.40;;;;;;;16.03;72.51;98886.15;222198;1301;23349;-76
2023/06/25 22:47:19;;;;;;;8.90;6.80;;;;;;;15.93;73.11;98881.97;222087;1301;25360;-77
2023/06/25 22:52:21;;;;;;;8.30;6.50;;;;;;;15.84;73.38;98880.60;222187;1302;25268;-76
2023/06/25 22:57:30;;;;;;;7.10;6.10;;;;;;;15.77;73.49;98879.02;222067;1302;24244;-76
2023/06/25 23:02:37;;;;;;;7.10;6.20;;;;;;;15.67;73.65;98874.55;222212;1301;22621;-76
2023/06/25 23:07:40;;;;;;;8.80;6.00;;;;;;;15.58;74.04;98874.30;222241;1302;22566;-76
2023/06/25 23:13:03;;;;;;;8.70;6.00;;;;;;;15.48;74.42;98872.91;222033;1302;22567;-76
2023/06/25 23:18:47;;;;;;;;;;;;;;;;;;;;;
2023/06/25 23:24:05;;;;;;;7.60;6.70;;;;;;;15.32;75.40;98861.48;222242;1302;22671;-77
2023/06/25 23:29:07;;;;;;;11.30;8.20;;;;;;;15.24;75.60;98861.92;222236;1302;22580;-76
2023/06/25 23:34:23;;;;;;;10.50;8.10;;;;;;;15.17;75.89;98864.71;222234;1301;22639;-76
2023/06/25 23:39:33;;;;;;;9.80;8.80;;;;;;;15.10;75.97;98860.23;222199;1302;22666;-75